Warwick, Canada
Current Conditions -  °F | °C
As of 1:00 PM on Tuesday 21 Oct 2014 (Local Time) from CYSC Reporting Station
Light Rain Light Rain  
Wind Chill: 44°   Ceiling: 2700
Heat Index: 46°   Visibility: 9mi
Dew Point: 45°   Wind: 5mph
Humidity: 93%   Direction: 50°NE
Pressure: 30.03"   Gusts: NA
Location:  45.95°N, 71.98°W
Report Text: CYSC 211700Z AUTO 05004KT 9SM -RA FEW011 BKN027 OVC034 08/07 A3003 RMK SLP178
Loading
Personal Weather Stations






























Interactive Weather Map New forecast layout! Learn more

10-Day Weather Forecast

Advertisements
Track Severe Weather on mobile